createdAt,value
2023-10-26T00:00:38.558Z,992.20
2023-10-26T00:01:38.892Z,992.15
2023-10-26T00:02:39.302Z,992.08
2023-10-26T00:03:39.595Z,992.02
2023-10-26T00:04:39.792Z,992.06
2023-10-26T00:05:40.177Z,992.06
2023-10-26T00:06:40.456Z,991.99
2023-10-26T00:07:40.773Z,991.93
2023-10-26T00:08:41.136Z,992.02
2023-10-26T00:09:41.507Z,992.01
2023-10-26T00:10:41.774Z,992.11
2023-10-26T00:11:41.997Z,992.07
2023-10-26T00:12:42.336Z,991.99
2023-10-26T00:13:42.683Z,992.07
2023-10-26T00:14:43.181Z,992.05
2023-10-26T00:15:43.296Z,992.00
2023-10-26T00:16:43.642Z,992.00
2023-10-26T00:17:43.998Z,992.02
2023-10-26T00:18:44.442Z,992.02
2023-10-26T00:19:44.660Z,991.98
2023-10-26T00:20:44.899Z,991.97
2023-10-26T00:21:45.148Z,992.00
2023-10-26T00:22:45.378Z,992.00
2023-10-26T00:23:45.597Z,991.96
2023-10-26T00:24:45.975Z,992.00
2023-10-26T00:25:53.893Z,991.97
2023-10-26T00:26:46.568Z,991.97
2023-10-26T00:27:50.845Z,991.96
2023-10-26T00:28:47.049Z,991.90
2023-10-26T00:29:47.344Z,991.96
2023-10-26T00:30:47.596Z,991.98
2023-10-26T00:31:47.857Z,991.94
2023-10-26T00:32:48.134Z,991.98
2023-10-26T00:33:48.480Z,991.97
2023-10-26T00:34:48.740Z,991.96
2023-10-26T00:35:49.088Z,991.86
2023-10-26T00:36:49.416Z,991.87
2023-10-26T00:37:49.786Z,991.89
2023-10-26T00:38:50.011Z,991.89
2023-10-26T00:39:50.313Z,991.87
2023-10-26T00:40:50.647Z,991.82
2023-10-26T00:41:51.013Z,991.82
2023-10-26T00:42:51.336Z,991.88
2023-10-26T00:43:51.551Z,991.81
2023-10-26T00:44:51.899Z,991.84
2023-10-26T00:45:52.224Z,991.82
2023-10-26T00:46:52.583Z,991.78
2023-10-26T00:47:52.899Z,991.74
2023-10-26T00:48:53.239Z,991.72
2023-10-26T00:49:53.370Z,991.78
2023-10-26T00:50:53.777Z,991.74
2023-10-26T00:51:53.970Z,991.73
2023-10-26T00:52:54.184Z,991.70
2023-10-26T00:53:54.545Z,991.68
2023-10-26T00:54:54.897Z,991.66
2023-10-26T00:55:55.132Z,991.69
2023-10-26T00:56:55.392Z,991.71
2023-10-26T00:57:55.706Z,991.69
2023-10-26T00:58:55.932Z,991.69
2023-10-26T00:59:56.324Z,991.65
2023-10-26T01:00:56.510Z,991.64
2023-10-26T01:01:56.907Z,991.55
2023-10-26T01:02:57.236Z,991.59
2023-10-26T01:03:57.430Z,991.57
2023-10-26T01:04:57.800Z,991.54
2023-10-26T01:05:58.068Z,991.53
2023-10-26T01:06:58.258Z,991.58
2023-10-26T01:07:58.505Z,991.54
2023-10-26T01:08:58.853Z,991.46
2023-10-26T01:09:59.185Z,991.46
2023-10-26T01:10:59.410Z,991.48
2023-10-26T01:11:59.731Z,991.46
2023-10-26T01:12:59.949Z,991.50
2023-10-26T01:14:00.191Z,991.47
2023-10-26T01:15:00.601Z,991.48
2023-10-26T01:16:00.897Z,991.50
2023-10-26T01:17:01.103Z,991.45
2023-10-26T01:18:01.500Z,991.52
2023-10-26T01:19:01.836Z,991.47
2023-10-26T01:20:02.089Z,991.48
2023-10-26T01:21:02.312Z,991.42
2023-10-26T01:22:02.624Z,991.44
2023-10-26T01:23:02.828Z,991.44
2023-10-26T01:24:03.219Z,991.40
2023-10-26T01:25:03.459Z,991.41
2023-10-26T01:26:03.673Z,991.39
2023-10-26T01:27:03.925Z,991.42
2023-10-26T01:28:04.250Z,991.41
2023-10-26T01:29:04.493Z,991.45
2023-10-26T01:30:04.728Z,991.40
2023-10-26T01:31:05.071Z,991.36
2023-10-26T01:32:05.320Z,991.41
2023-10-26T01:33:05.553Z,991.37
2023-10-26T01:34:05.891Z,991.37
2023-10-26T01:35:06.139Z,991.40
2023-10-26T01:36:06.508Z,991.35
2023-10-26T01:37:06.657Z,991.35
2023-10-26T01:38:06.989Z,991.33
2023-10-26T01:39:07.241Z,991.28
2023-10-26T01:40:07.451Z,991.36
2023-10-26T01:41:07.827Z,991.33
2023-10-26T01:42:08.030Z,991.32
2023-10-26T01:43:08.388Z,991.37
2023-10-26T01:44:08.629Z,991.28
2023-10-26T01:45:08.902Z,991.32
2023-10-26T01:46:09.079Z,991.29
2023-10-26T01:47:09.434Z,991.33
2023-10-26T01:48:09.846Z,991.29
2023-10-26T01:49:10.154Z,991.28
2023-10-26T01:50:10.354Z,991.30
2023-10-26T01:51:10.728Z,991.27
2023-10-26T01:52:11.102Z,991.25
2023-10-26T01:53:11.393Z,991.28
2023-10-26T01:54:12.940Z,991.22
2023-10-26T01:55:11.929Z,991.23
2023-10-26T01:56:12.265Z,991.15
2023-10-26T01:57:12.538Z,991.15
2023-10-26T01:58:12.883Z,991.14
2023-10-26T01:59:13.090Z,991.11
2023-10-26T02:00:13.438Z,991.15
2023-10-26T02:01:13.758Z,991.09
2023-10-26T02:02:14.132Z,991.12
2023-10-26T02:03:14.541Z,991.09
2023-10-26T02:04:14.818Z,991.09
2023-10-26T02:05:15.137Z,991.09
2023-10-26T02:06:15.532Z,991.01
2023-10-26T02:07:15.590Z,991.10
2023-10-26T02:08:15.934Z,991.07
2023-10-26T02:09:16.317Z,991.08
2023-10-26T02:10:16.627Z,991.11
2023-10-26T02:11:16.985Z,991.03
2023-10-26T02:12:17.284Z,991.02
2023-10-26T02:13:17.484Z,991.01
2023-10-26T02:14:17.836Z,991.03
2023-10-26T02:15:18.192Z,991.07
2023-10-26T02:16:18.551Z,991.00
2023-10-26T02:17:18.746Z,990.98
2023-10-26T02:18:19.208Z,991.02
2023-10-26T02:19:19.715Z,991.01
2023-10-26T02:20:19.708Z,991.00
2023-10-26T02:21:20.002Z,990.98
2023-10-26T02:22:20.226Z,991.00
2023-10-26T02:23:20.561Z,990.99
2023-10-26T02:24:20.929Z,990.99
2023-10-26T02:25:21.248Z,991.00
2023-10-26T02:26:21.461Z,990.99
2023-10-26T02:27:21.829Z,990.96
2023-10-26T02:28:22.343Z,990.97
2023-10-26T02:29:22.491Z,990.96
2023-10-26T02:30:22.879Z,990.96
2023-10-26T02:31:23.065Z,990.90
2023-10-26T02:32:23.427Z,990.95
2023-10-26T02:33:23.762Z,990.94
2023-10-26T02:34:24.111Z,990.96
2023-10-26T02:35:24.421Z,990.98
2023-10-26T02:36:24.798Z,990.98
2023-10-26T02:37:24.977Z,990.95
2023-10-26T02:38:25.341Z,991.00
2023-10-26T02:39:25.616Z,990.96
2023-10-26T02:40:25.809Z,990.93
2023-10-26T02:41:26.137Z,990.92
2023-10-26T02:42:26.521Z,990.96
2023-10-26T02:43:26.723Z,990.95
2023-10-26T02:44:27.057Z,990.96
2023-10-26T02:45:27.324Z,990.91
2023-10-26T02:46:27.620Z,990.87
2023-10-26T02:47:27.853Z,990.90
2023-10-26T02:48:28.208Z,990.93
2023-10-26T02:49:28.540Z,990.89
2023-10-26T02:50:28.783Z,990.90
2023-10-26T02:51:29.015Z,990.87
2023-10-26T02:52:29.242Z,990.90
2023-10-26T02:53:29.504Z,990.86
2023-10-26T02:54:29.830Z,990.85
2023-10-26T02:55:30.022Z,990.84
2023-10-26T02:56:30.343Z,990.85
2023-10-26T02:57:30.668Z,990.87
2023-10-26T02:58:31.027Z,990.78
2023-10-26T02:59:31.235Z,990.85
2023-10-26T03:00:31.657Z,990.82
2023-10-26T03:01:31.860Z,990.83
2023-10-26T03:02:32.256Z,990.76
2023-10-26T03:03:32.557Z,990.74
2023-10-26T03:04:32.794Z,990.77
2023-10-26T03:05:33.166Z,990.73
2023-10-26T03:06:33.530Z,990.72
2023-10-26T03:07:33.737Z,990.72
2023-10-26T03:08:33.969Z,990.70
2023-10-26T03:09:34.403Z,990.70
2023-10-26T03:10:34.643Z,990.68
2023-10-26T03:11:35.013Z,990.71
2023-10-26T03:12:35.253Z,990.70
2023-10-26T03:13:35.478Z,990.69
2023-10-26T03:14:35.821Z,990.77
2023-10-26T03:15:36.186Z,990.73
2023-10-26T03:16:38.508Z,990.76
2023-10-26T03:17:36.747Z,990.66
2023-10-26T03:18:37.111Z,990.77
2023-10-26T03:19:37.289Z,990.69
2023-10-26T03:20:37.625Z,990.73
2023-10-26T03:21:37.991Z,990.74
2023-10-26T03:22:38.280Z,990.71
2023-10-26T03:23:38.483Z,990.67
2023-10-26T03:24:38.818Z,990.75
2023-10-26T03:25:39.176Z,990.68
2023-10-26T03:26:39.447Z,990.68
2023-10-26T03:27:39.644Z,990.63
2023-10-26T03:28:39.982Z,990.69
2023-10-26T03:29:40.308Z,990.69
2023-10-26T03:30:40.658Z,990.64
2023-10-26T03:31:40.905Z,990.67
2023-10-26T03:32:41.141Z,990.66
2023-10-26T03:33:41.537Z,990.62
2023-10-26T03:34:41.961Z,990.67
2023-10-26T03:35:42.071Z,990.67
2023-10-26T03:36:42.419Z,990.71
2023-10-26T03:37:42.760Z,990.65
2023-10-26T03:38:43.091Z,990.65
2023-10-26T03:39:43.434Z,990.63
2023-10-26T03:40:43.800Z,990.67
2023-10-26T03:41:44.002Z,990.69
2023-10-26T03:42:44.321Z,990.59
2023-10-26T03:43:44.647Z,990.64
2023-10-26T03:44:45.448Z,990.62
2023-10-26T03:45:45.302Z,990.63
2023-10-26T03:46:45.516Z,990.64
2023-10-26T03:47:45.901Z,990.63
2023-10-26T03:48:46.116Z,990.60
2023-10-26T03:49:46.473Z,990.61
2023-10-26T03:50:46.672Z,990.61
2023-10-26T03:51:47.052Z,990.55
2023-10-26T03:52:47.338Z,990.53
2023-10-26T03:53:47.694Z,990.56
2023-10-26T03:54:48.043Z,990.57
2023-10-26T03:55:48.248Z,990.58
2023-10-26T03:56:48.582Z,990.56
2023-10-26T03:57:48.923Z,990.54
2023-10-26T03:58:49.275Z,990.61
2023-10-26T03:59:49.499Z,990.57
2023-10-26T04:00:49.708Z,990.55
2023-10-26T04:01:50.139Z,990.54
2023-10-26T04:02:50.381Z,990.49
2023-10-26T04:03:50.588Z,990.51
2023-10-26T04:04:50.786Z,990.50
2023-10-26T04:05:51.121Z,990.52
2023-10-26T04:06:51.490Z,990.47
2023-10-26T04:07:51.791Z,990.43
2023-10-26T04:08:52.173Z,990.43
2023-10-26T04:09:52.353Z,990.48
2023-10-26T04:10:52.687Z,990.46
2023-10-26T04:11:53.118Z,990.47
2023-10-26T04:12:53.313Z,990.44
2023-10-26T04:13:53.675Z,990.45
2023-10-26T04:14:53.961Z,990.44
2023-10-26T04:15:54.229Z,990.45
2023-10-26T04:16:54.424Z,990.42
2023-10-26T04:17:54.826Z,990.41
2023-10-26T04:18:55.084Z,990.40
2023-10-26T04:19:55.257Z,990.35
2023-10-26T04:20:55.674Z,990.36
2023-10-26T04:21:55.864Z,990.37
2023-10-26T04:22:56.216Z,990.35
2023-10-26T04:23:56.471Z,990.36
2023-10-26T04:24:56.789Z,990.32
2023-10-26T04:25:57.044Z,990.31
2023-10-26T04:26:57.291Z,990.28
2023-10-26T04:27:57.502Z,990.25
2023-10-26T04:28:57.890Z,990.24
2023-10-26T04:29:58.215Z,990.21
2023-10-26T04:30:58.412Z,990.20
2023-10-26T04:31:58.870Z,990.19
2023-10-26T04:32:59.109Z,990.16
2023-10-26T04:33:59.310Z,990.12
2023-10-26T04:34:59.652Z,990.14
2023-10-26T04:35:59.993Z,990.08
2023-10-26T04:37:00.328Z,990.14
2023-10-26T04:38:00.544Z,990.12
2023-10-26T04:39:00.907Z,990.09
2023-10-26T04:40:02.431Z,990.11
2023-10-26T04:41:01.441Z,990.11
2023-10-26T04:42:01.896Z,990.08
2023-10-26T04:43:02.046Z,990.11
2023-10-26T04:44:02.413Z,990.07
2023-10-26T04:45:02.677Z,990.06
2023-10-26T04:46:02.897Z,990.06
2023-10-26T04:47:03.115Z,990.11
2023-10-26T04:48:03.396Z,990.05
2023-10-26T04:49:03.618Z,990.03
2023-10-26T04:50:03.841Z,990.05
2023-10-26T04:51:04.298Z,990.06
2023-10-26T04:52:04.497Z,990.11
2023-10-26T04:53:04.830Z,990.04
2023-10-26T04:54:05.185Z,990.03
2023-10-26T04:55:05.495Z,990.02
2023-10-26T04:56:05.860Z,990.07
2023-10-26T04:57:06.114Z,990.05
2023-10-26T04:58:06.424Z,990.06
2023-10-26T04:59:06.762Z,990.00
2023-10-26T05:00:07.141Z,990.02
2023-10-26T05:01:07.392Z,990.02
2023-10-26T05:02:07.581Z,990.06
2023-10-26T05:03:07.978Z,990.00
2023-10-26T05:04:08.202Z,990.09
2023-10-26T05:05:08.560Z,990.06
2023-10-26T05:06:08.919Z,990.08
2023-10-26T05:07:09.152Z,990.09
2023-10-26T05:08:09.387Z,990.04
2023-10-26T05:09:09.750Z,990.05
2023-10-26T05:10:10.078Z,990.04
2023-10-26T05:11:10.269Z,990.06
2023-10-26T05:12:10.668Z,989.98
2023-10-26T05:13:10.831Z,990.07
2023-10-26T05:14:11.180Z,990.07
2023-10-26T05:15:11.533Z,989.98
2023-10-26T05:16:11.868Z,990.03
2023-10-26T05:17:12.166Z,989.99
2023-10-26T05:18:12.467Z,990.07
2023-10-26T05:19:12.719Z,990.03
2023-10-26T05:20:12.958Z,990.01
2023-10-26T05:21:13.208Z,990.00
2023-10-26T05:22:13.390Z,990.01
2023-10-26T05:23:13.716Z,990.01
2023-10-26T05:24:14.114Z,990.00
2023-10-26T05:25:14.304Z,990.03
2023-10-26T05:26:14.713Z,989.98
2023-10-26T05:27:14.970Z,990.05
2023-10-26T05:28:15.175Z,990.02
2023-10-26T05:29:15.424Z,989.96
2023-10-26T05:30:15.695Z,990.02
2023-10-26T05:31:16.090Z,989.97
2023-10-26T05:32:16.134Z,990.02
2023-10-26T05:33:16.779Z,989.95
2023-10-26T05:34:16.659Z,989.92
2023-10-26T05:35:16.909Z,990.00
2023-10-26T05:36:17.211Z,989.92
2023-10-26T05:37:17.419Z,989.95
2023-10-26T05:38:17.660Z,989.98
2023-10-26T05:39:17.933Z,989.99
2023-10-26T05:40:18.165Z,989.99
2023-10-26T05:41:18.393Z,989.94
2023-10-26T05:42:18.678Z,989.97
2023-10-26T05:43:18.893Z,989.96
2023-10-26T05:44:19.120Z,990.01
2023-10-26T05:45:19.453Z,989.98
2023-10-26T05:46:19.609Z,989.96
2023-10-26T05:47:22.075Z,989.96
2023-10-26T05:48:20.316Z,989.98
2023-10-26T05:49:20.503Z,990.00
2023-10-26T05:50:20.721Z,989.99
2023-10-26T05:51:21.137Z,989.98
2023-10-26T05:52:21.407Z,990.01
2023-10-26T05:53:21.690Z,990.01
2023-10-26T05:54:22.084Z,990.01
2023-10-26T05:55:22.334Z,990.01
2023-10-26T05:56:22.580Z,990.00
2023-10-26T05:57:22.882Z,989.97
2023-10-26T05:58:23.182Z,989.93
2023-10-26T05:59:23.426Z,990.04
2023-10-26T06:00:23.658Z,990.02
2023-10-26T06:01:23.971Z,990.02
2023-10-26T06:02:25.262Z,989.99
2023-10-26T06:03:24.500Z,990.00
2023-10-26T06:04:24.719Z,990.04
2023-10-26T06:05:25.088Z,990.05
2023-10-26T06:06:25.344Z,990.03
2023-10-26T06:07:25.475Z,990.06
2023-10-26T06:08:25.769Z,990.08
2023-10-26T06:09:26.029Z,990.02
2023-10-26T06:10:26.304Z,990.08
2023-10-26T06:11:26.548Z,990.06
2023-10-26T06:12:26.878Z,990.03
2023-10-26T06:13:27.156Z,990.08
2023-10-26T06:14:27.376Z,990.00
2023-10-26T06:15:27.716Z,990.01
2023-10-26T06:16:28.007Z,990.07
2023-10-26T06:17:28.289Z,990.06
2023-10-26T06:18:28.573Z,990.04
2023-10-26T06:19:28.790Z,990.08
2023-10-26T06:20:29.338Z,990.13
2023-10-26T06:21:29.309Z,990.08
2023-10-26T06:22:29.521Z,990.10
2023-10-26T06:23:29.784Z,990.07
2023-10-26T06:24:30.084Z,990.13
2023-10-26T06:25:30.328Z,990.05
2023-10-26T06:26:30.581Z,990.10
2023-10-26T06:27:30.872Z,990.09
2023-10-26T06:28:31.122Z,990.06
2023-10-26T06:29:31.429Z,990.06
2023-10-26T06:30:31.752Z,990.05
2023-10-26T06:31:32.018Z,990.02
2023-10-26T06:32:32.243Z,990.11
2023-10-26T06:33:32.492Z,990.08
2023-10-26T06:34:32.760Z,990.08
2023-10-26T06:35:32.994Z,990.04
2023-10-26T06:36:33.323Z,990.11
2023-10-26T06:37:33.539Z,990.08
2023-10-26T06:38:33.818Z,990.09
2023-10-26T06:39:34.127Z,990.05
2023-10-26T06:40:34.315Z,989.98
2023-10-26T06:41:34.589Z,990.05
2023-10-26T06:42:34.898Z,990.00
2023-10-26T06:43:35.151Z,990.05
2023-10-26T06:44:35.412Z,990.02
2023-10-26T06:45:35.679Z,990.02
2023-10-26T06:46:35.960Z,990.04
2023-10-26T06:47:36.191Z,990.02
2023-10-26T06:48:36.505Z,990.03
2023-10-26T06:49:36.757Z,990.03
2023-10-26T06:50:37.086Z,989.96
2023-10-26T06:51:37.348Z,990.03
2023-10-26T06:52:37.568Z,989.98
2023-10-26T06:53:37.880Z,989.98
2023-10-26T06:54:40.457Z,990.02
2023-10-26T06:55:38.458Z,990.04
2023-10-26T06:56:38.752Z,990.03
2023-10-26T06:57:39.129Z,990.01
2023-10-26T06:58:39.294Z,989.99
2023-10-26T06:59:39.587Z,990.02
2023-10-26T07:00:52.197Z,989.96
2023-10-26T07:05:39.585Z,990.01
2023-10-26T07:06:39.773Z,989.94
2023-10-26T07:07:40.153Z,990.05
2023-10-26T07:08:40.249Z,990.04
2023-10-26T07:09:40.520Z,989.99
2023-10-26T07:10:40.788Z,989.99
2023-10-26T07:11:41.101Z,990.02
2023-10-26T07:12:41.390Z,990.05
2023-10-26T07:13:41.706Z,989.95
2023-10-26T07:14:42.142Z,990.00
2023-10-26T07:15:42.295Z,989.96
2023-10-26T07:16:42.590Z,989.97
2023-10-26T07:17:42.923Z,989.99
2023-10-26T07:18:43.229Z,989.97
2023-10-26T07:19:43.495Z,990.03
2023-10-26T07:20:43.730Z,989.99
2023-10-26T07:21:44.072Z,989.98
2023-10-26T07:22:44.288Z,990.02
2023-10-26T07:23:44.549Z,989.98
2023-10-26T07:24:45.062Z,989.96
2023-10-26T07:25:45.094Z,989.96
2023-10-26T07:26:45.410Z,989.99
2023-10-26T07:27:45.688Z,990.02
2023-10-26T07:28:45.921Z,989.96
2023-10-26T07:29:46.190Z,989.99
2023-10-26T07:30:46.463Z,990.01
2023-10-26T07:31:47.994Z,989.99
2023-10-26T07:32:47.114Z,989.99
2023-10-26T07:33:47.401Z,990.00
2023-10-26T07:34:47.623Z,989.98
2023-10-26T07:35:47.919Z,990.02
2023-10-26T07:36:48.178Z,990.03
2023-10-26T07:37:57.948Z,990.04
2023-10-26T07:39:46.425Z,990.04
2023-10-26T07:39:49.989Z,990.13
2023-10-26T07:40:49.335Z,990.03
2023-10-26T07:42:08.094Z,990.08
2023-10-26T07:42:50.877Z,990.04
2023-10-26T07:43:50.169Z,990.09
2023-10-26T07:44:50.452Z,990.05
2023-10-26T07:45:50.804Z,990.07
2023-10-26T07:46:51.009Z,990.06
2023-10-26T07:47:51.289Z,990.05
2023-10-26T07:48:51.547Z,990.08
2023-10-26T07:49:51.809Z,990.09
2023-10-26T07:50:52.104Z,990.07
2023-10-26T07:51:52.294Z,990.07
2023-10-26T07:52:52.542Z,990.09
2023-10-26T07:53:52.833Z,990.10
2023-10-26T07:54:53.126Z,990.13
2023-10-26T07:55:53.365Z,990.14
2023-10-26T07:56:53.607Z,990.14
2023-10-26T07:57:53.845Z,990.13
2023-10-26T07:58:54.234Z,990.14
2023-10-26T07:59:54.380Z,990.08
2023-10-26T08:00:54.625Z,990.15
2023-10-26T08:01:54.976Z,990.11
2023-10-26T08:02:55.268Z,990.18
2023-10-26T08:03:55.515Z,990.18
2023-10-26T08:04:55.873Z,990.13
2023-10-26T08:05:56.085Z,990.15
2023-10-26T08:06:56.432Z,990.10
2023-10-26T08:07:56.742Z,990.10
2023-10-26T08:08:56.940Z,990.15
2023-10-26T08:09:57.184Z,990.09
2023-10-26T08:10:57.577Z,990.11
2023-10-26T08:11:57.796Z,990.09
2023-10-26T08:12:58.125Z,990.12
2023-10-26T08:13:58.542Z,990.12
2023-10-26T08:16:11.453Z,990.08
2023-10-26T08:16:11.629Z,990.10
2023-10-26T08:17:00.689Z,990.10
2023-10-26T08:17:59.892Z,990.03
2023-10-26T08:19:00.069Z,990.07
2023-10-26T08:20:01.145Z,990.05
2023-10-26T08:21:00.607Z,990.05
2023-10-26T08:22:00.862Z,990.04
2023-10-26T08:23:01.165Z,990.03
2023-10-26T08:24:01.371Z,990.07
2023-10-26T08:25:01.672Z,990.05
2023-10-26T08:26:02.060Z,990.10
2023-10-26T08:27:03.179Z,990.11
2023-10-26T08:28:02.537Z,990.05
2023-10-26T08:29:13.717Z,990.01
2023-10-26T08:30:04.091Z,990.07
2023-10-26T08:31:03.373Z,990.14
2023-10-26T08:32:03.710Z,990.12
2023-10-26T08:33:04.113Z,990.13
2023-10-26T08:34:04.274Z,990.11
2023-10-26T08:35:04.600Z,990.05
2023-10-26T08:36:04.860Z,990.07
2023-10-26T08:38:05.430Z,990.14
2023-10-26T08:39:05.663Z,990.05
2023-10-26T08:40:06.062Z,990.15
2023-10-26T08:41:06.360Z,990.11
2023-10-26T08:42:06.608Z,990.16
2023-10-26T08:43:06.844Z,990.12
2023-10-26T08:44:07.079Z,990.09
2023-10-26T08:45:07.349Z,990.16
2023-10-26T08:46:07.645Z,990.18
2023-10-26T08:47:08.007Z,990.09
2023-10-26T08:48:08.103Z,990.08
2023-10-26T08:49:08.441Z,990.13
2023-10-26T08:50:16.139Z,990.16
2023-10-26T08:51:09.987Z,990.18
2023-10-26T08:52:09.318Z,990.23
2023-10-26T08:53:09.537Z,990.17
2023-10-26T08:54:09.757Z,990.16
2023-10-26T08:55:10.173Z,990.23
2023-10-26T08:56:10.423Z,990.25
2023-10-26T08:57:10.614Z,990.26
2023-10-26T08:58:10.996Z,990.27
2023-10-26T08:59:11.252Z,990.30
2023-10-26T09:00:11.558Z,990.30
2023-10-26T09:01:11.798Z,990.27
2023-10-26T09:02:12.135Z,990.32
2023-10-26T09:03:12.433Z,990.37
2023-10-26T09:04:12.756Z,990.35
2023-10-26T09:05:12.979Z,990.33
2023-10-26T09:06:13.225Z,990.40
2023-10-26T09:07:13.429Z,990.44
2023-10-26T09:08:13.640Z,990.40
2023-10-26T09:09:14.015Z,990.43
2023-10-26T09:10:14.227Z,990.42
2023-10-26T09:11:14.569Z,990.43
2023-10-26T09:12:14.956Z,990.45
2023-10-26T09:13:15.257Z,990.53
2023-10-26T09:14:15.500Z,990.51
2023-10-26T09:15:15.736Z,990.51
2023-10-26T09:16:16.041Z,990.51
2023-10-26T09:17:16.361Z,990.53
2023-10-26T09:18:16.628Z,990.51
2023-10-26T09:19:16.777Z,990.53
2023-10-26T09:20:17.008Z,990.55
2023-10-26T09:21:17.299Z,990.58
2023-10-26T09:22:17.542Z,990.52
2023-10-26T09:23:17.818Z,990.53
2023-10-26T09:24:18.099Z,990.53
2023-10-26T09:25:18.329Z,990.49
2023-10-26T09:26:18.590Z,990.50
2023-10-26T09:27:18.875Z,990.52
2023-10-26T09:28:19.240Z,990.54
2023-10-26T09:29:19.393Z,990.52
2023-10-26T09:30:19.645Z,990.48
2023-10-26T09:31:20.081Z,990.49
2023-10-26T09:32:20.269Z,990.43
2023-10-26T09:33:20.481Z,990.48
2023-10-26T09:34:20.733Z,990.48
2023-10-26T09:35:21.085Z,990.52
2023-10-26T09:36:21.451Z,990.50
2023-10-26T09:37:21.613Z,990.53
2023-10-26T09:38:21.883Z,990.50
2023-10-26T09:39:22.124Z,990.52
2023-10-26T09:40:22.381Z,990.56
2023-10-26T09:41:22.652Z,990.54
2023-10-26T09:42:22.895Z,990.55
2023-10-26T09:43:23.200Z,990.52
2023-10-26T09:44:23.413Z,990.60
2023-10-26T09:45:23.679Z,990.60
2023-10-26T09:46:23.955Z,990.64
2023-10-26T09:47:26.142Z,990.65
2023-10-26T09:48:24.585Z,990.65
2023-10-26T09:49:24.848Z,990.69
2023-10-26T09:50:25.194Z,990.60
2023-10-26T09:51:25.430Z,990.71
2023-10-26T09:52:25.822Z,990.71
2023-10-26T09:53:25.916Z,990.74
2023-10-26T09:54:26.133Z,990.67
2023-10-26T09:55:26.428Z,990.71
2023-10-26T09:56:26.698Z,990.71
2023-10-26T09:57:26.911Z,990.73
2023-10-26T09:58:27.142Z,990.67
2023-10-26T09:59:27.361Z,990.72
2023-10-26T10:00:27.791Z,990.71
2023-10-26T10:01:28.028Z,990.68
2023-10-26T10:02:28.246Z,990.75
2023-10-26T10:03:28.607Z,990.78
2023-10-26T10:04:28.836Z,990.66
2023-10-26T10:05:29.056Z,990.68
2023-10-26T10:06:29.344Z,990.75
2023-10-26T10:07:29.539Z,990.71
2023-10-26T10:08:29.875Z,990.68
2023-10-26T10:09:30.245Z,990.67
2023-10-26T10:10:30.580Z,990.66
2023-10-26T10:11:30.979Z,990.73
2023-10-26T10:12:31.224Z,990.74
2023-10-26T10:13:31.543Z,990.75
2023-10-26T10:14:31.796Z,990.77
2023-10-26T10:16:32.366Z,990.81
2023-10-26T10:17:32.612Z,990.85
2023-10-26T10:18:32.943Z,990.77
2023-10-26T10:19:34.466Z,990.75
2023-10-26T10:20:33.477Z,990.75
2023-10-26T10:21:33.688Z,990.75
2023-10-26T10:22:33.925Z,990.80
2023-10-26T10:23:34.264Z,990.76
2023-10-26T10:24:34.576Z,990.78
2023-10-26T10:25:34.766Z,990.84
2023-10-26T10:26:34.996Z,990.76
2023-10-26T10:27:35.255Z,990.79
2023-10-26T10:28:35.452Z,990.70
2023-10-26T10:29:35.734Z,990.70
2023-10-26T10:30:36.010Z,990.75
2023-10-26T10:31:36.195Z,990.68
2023-10-26T10:32:36.515Z,990.70
2023-10-26T10:33:36.835Z,990.69
2023-10-26T10:34:36.964Z,990.68
2023-10-26T10:35:37.226Z,990.72
2023-10-26T10:36:37.487Z,990.72
2023-10-26T10:37:37.708Z,990.76
2023-10-26T10:38:37.975Z,990.74
2023-10-26T10:39:38.228Z,990.73
2023-10-26T10:40:38.486Z,990.75
2023-10-26T10:41:38.746Z,990.67
2023-10-26T10:42:39.038Z,990.76
2023-10-26T10:43:39.320Z,990.73
2023-10-26T10:44:40.820Z,990.69
2023-10-26T10:45:39.859Z,990.66
2023-10-26T10:46:40.164Z,990.68
2023-10-26T10:47:40.376Z,990.66
2023-10-26T10:48:40.651Z,990.67
2023-10-26T10:49:40.889Z,990.64
2023-10-26T10:50:41.126Z,990.69
2023-10-26T10:51:41.401Z,990.68
2023-10-26T10:52:41.656Z,990.64
2023-10-26T10:53:41.964Z,990.66
2023-10-26T10:54:53.468Z,990.71
2023-10-26T10:55:44.775Z,990.70
2023-10-26T10:56:42.832Z,990.66
2023-10-26T10:57:43.165Z,990.68
2023-10-26T10:58:43.342Z,990.65
2023-10-26T10:59:43.595Z,990.67
2023-10-26T11:00:43.858Z,990.60
2023-10-26T11:01:44.155Z,990.62
2023-10-26T11:02:44.419Z,990.59
2023-10-26T11:03:44.820Z,990.66
2023-10-26T11:04:55.374Z,990.65
2023-10-26T11:05:46.236Z,990.63
2023-10-26T11:06:45.556Z,990.59
2023-10-26T11:07:45.915Z,990.57
2023-10-26T11:08:46.164Z,990.57
2023-10-26T11:09:46.439Z,990.49
2023-10-26T11:10:46.642Z,990.55
2023-10-26T11:11:46.872Z,990.63
2023-10-26T11:12:47.184Z,990.61
2023-10-26T11:13:47.357Z,990.59
2023-10-26T11:14:47.607Z,990.61
2023-10-26T11:15:47.850Z,990.58
2023-10-26T11:16:48.163Z,990.54
2023-10-26T11:17:48.419Z,990.57
2023-10-26T11:18:48.695Z,990.55
2023-10-26T11:19:48.894Z,990.63
2023-10-26T11:20:49.124Z,990.51
2023-10-26T11:21:49.526Z,990.54
2023-10-26T11:22:49.603Z,990.57
2023-10-26T11:23:49.815Z,990.60
2023-10-26T11:24:50.211Z,990.54
2023-10-26T11:25:50.418Z,990.56
2023-10-26T11:26:50.700Z,990.57
2023-10-26T11:27:50.975Z,990.53
2023-10-26T11:28:51.246Z,990.50
2023-10-26T11:29:51.543Z,990.58
2023-10-26T11:30:52.002Z,990.52
2023-10-26T11:31:52.266Z,990.56
2023-10-26T11:32:53.477Z,990.59
2023-10-26T11:33:52.703Z,990.59
2023-10-26T11:34:52.922Z,990.60
2023-10-26T11:35:53.210Z,990.58
2023-10-26T11:36:53.489Z,990.54
2023-10-26T11:37:53.684Z,990.60
2023-10-26T11:38:53.944Z,990.56
2023-10-26T11:39:54.250Z,990.57
2023-10-26T11:40:54.474Z,990.60
2023-10-26T11:41:54.744Z,990.57
2023-10-26T11:43:18.341Z,990.54
2023-10-26T11:43:58.300Z,990.52
2023-10-26T11:45:17.253Z,990.56
2023-10-26T11:45:55.854Z,990.56
2023-10-26T11:46:56.030Z,990.60
2023-10-26T11:47:56.228Z,990.59
2023-10-26T11:48:56.485Z,990.58
2023-10-26T11:49:56.749Z,990.64
2023-10-26T11:50:56.998Z,990.57
2023-10-26T11:52:00.282Z,990.58
2023-10-26T11:52:57.623Z,990.53
2023-10-26T11:53:57.952Z,990.64
2023-10-26T11:54:58.323Z,990.62
2023-10-26T11:55:58.518Z,990.55
2023-10-26T11:56:58.788Z,990.61
2023-10-26T11:57:59.099Z,990.61
2023-10-26T11:58:59.293Z,990.60
2023-10-26T11:59:59.661Z,990.64
2023-10-26T12:00:59.929Z,990.67
2023-10-26T12:02:00.178Z,990.60
2023-10-26T12:03:00.545Z,990.69
2023-10-26T12:04:00.873Z,990.70
2023-10-26T12:05:00.974Z,990.72
2023-10-26T12:06:01.182Z,990.76
2023-10-26T12:07:01.476Z,990.68
2023-10-26T12:08:01.676Z,990.72
2023-10-26T12:09:02.032Z,990.76
2023-10-26T12:10:02.278Z,990.77
2023-10-26T12:11:02.503Z,990.77
2023-10-26T12:12:02.737Z,990.76
2023-10-26T12:13:03.104Z,990.77
2023-10-26T12:14:03.358Z,990.76
2023-10-26T12:15:03.601Z,990.81
2023-10-26T12:16:03.927Z,990.79
2023-10-26T12:17:04.206Z,990.80
2023-10-26T12:18:04.499Z,990.82
2023-10-26T12:19:04.706Z,990.73
2023-10-26T12:20:04.978Z,990.76
2023-10-26T12:21:05.205Z,990.71
2023-10-26T12:22:05.500Z,990.74
2023-10-26T12:23:05.689Z,990.71
2023-10-26T12:24:05.960Z,990.76
2023-10-26T12:25:06.201Z,990.75
2023-10-26T12:26:06.521Z,990.74
2023-10-26T12:27:06.729Z,990.80
2023-10-26T12:28:19.152Z,990.78
2023-10-26T12:29:08.188Z,990.75
2023-10-26T12:30:07.477Z,990.84
2023-10-26T12:31:07.748Z,990.85
2023-10-26T12:32:08.087Z,990.85
2023-10-26T12:33:08.399Z,990.89
2023-10-26T12:34:08.642Z,990.89
2023-10-26T12:35:08.877Z,990.90
2023-10-26T12:36:09.247Z,990.87
2023-10-26T12:37:09.441Z,990.83
2023-10-26T12:38:09.670Z,990.89